sensor_id;sensor_type;location;lat;lon;timestamp;P1;durP1;ratioP1;P2;durP2;ratioP2
49029;SDS011;43337;52.070;4.508;2023-04-03T00:02:04;4.47;;;1.30;;
49029;SDS011;43337;52.070;4.508;2023-04-03T00:04:29;5.38;;;1.50;;
49029;SDS011;43337;52.070;4.508;2023-04-03T00:06:55;4.43;;;1.30;;
49029;SDS011;43337;52.070;4.508;2023-04-03T00:09:20;6.78;;;1.20;;
49029;SDS011;43337;52.070;4.508;2023-04-03T00:11:45;3.25;;;1.50;;
49029;SDS011;43337;52.070;4.508;2023-04-03T00:14:11;5.50;;;1.55;;
49029;SDS011;43337;52.070;4.508;2023-04-03T00:16:39;3.20;;;1.10;;
49029;SDS011;43337;52.070;4.508;2023-04-03T00:19:04;3.60;;;1.30;;
49029;SDS011;43337;52.070;4.508;2023-04-03T00:21:30;4.78;;;1.17;;
49029;SDS011;43337;52.070;4.508;2023-04-03T00:23:56;4.78;;;1.42;;
49029;SDS011;43337;52.070;4.508;2023-04-03T00:26:21;3.97;;;1.33;;
49029;SDS011;43337;52.070;4.508;2023-04-03T00:28:47;4.63;;;1.30;;
49029;SDS011;43337;52.070;4.508;2023-04-03T00:31:14;4.15;;;1.25;;
49029;SDS011;43337;52.070;4.508;2023-04-03T00:33:41;5.53;;;1.38;;
49029;SDS011;43337;52.070;4.508;2023-04-03T00:36:07;4.07;;;1.30;;
49029;SDS011;43337;52.070;4.508;2023-04-03T00:38:35;7.07;;;1.60;;
49029;SDS011;43337;52.070;4.508;2023-04-03T00:41:01;4.35;;;1.38;;
49029;SDS011;43337;52.070;4.508;2023-04-03T00:43:27;3.85;;;1.30;;
49029;SDS011;43337;52.070;4.508;2023-04-03T00:45:55;3.88;;;1.75;;
49029;SDS011;43337;52.070;4.508;2023-04-03T00:48:22;3.85;;;1.40;;
49029;SDS011;43337;52.070;4.508;2023-04-03T00:50:53;2.65;;;1.20;;
49029;SDS011;43337;52.070;4.508;2023-04-03T00:53:22;8.57;;;1.35;;
49029;SDS011;43337;52.070;4.508;2023-04-03T00:55:52;2.75;;;1.02;;
49029;SDS011;43337;52.070;4.508;2023-04-03T00:58:20;3.35;;;1.10;;
49029;SDS011;43337;52.070;4.508;2023-04-03T01:00:52;2.88;;;1.23;;
49029;SDS011;43337;52.070;4.508;2023-04-03T01:03:22;4.15;;;1.23;;
49029;SDS011;43337;52.070;4.508;2023-04-03T01:05:48;3.60;;;0.98;;
49029;SDS011;43337;52.070;4.508;2023-04-03T01:08:13;4.90;;;1.30;;
49029;SDS011;43337;52.070;4.508;2023-04-03T01:10:39;3.25;;;1.15;;
49029;SDS011;43337;52.070;4.508;2023-04-03T01:13:17;3.60;;;1.20;;
49029;SDS011;43337;52.070;4.508;2023-04-03T01:15:45;2.80;;;0.98;;
49029;SDS011;43337;52.070;4.508;2023-04-03T01:18:10;4.65;;;1.63;;
49029;SDS011;43337;52.070;4.508;2023-04-03T01:25:53;3.83;;;1.10;;
49029;SDS011;43337;52.070;4.508;2023-04-03T01:28:22;2.83;;;1.10;;
49029;SDS011;43337;52.070;4.508;2023-04-03T01:30:59;4.40;;;1.10;;
49029;SDS011;43337;52.070;4.508;2023-04-03T01:33:35;3.95;;;1.17;;
49029;SDS011;43337;52.070;4.508;2023-04-03T01:36:03;2.88;;;1.15;;
49029;SDS011;43337;52.070;4.508;2023-04-03T01:38:29;5.43;;;1.30;;
49029;SDS011;43337;52.070;4.508;2023-04-03T01:40:55;2.70;;;1.25;;
49029;SDS011;43337;52.070;4.508;2023-04-03T01:43:20;4.20;;;1.50;;
49029;SDS011;43337;52.070;4.508;2023-04-03T01:45:46;5.05;;;1.33;;
49029;SDS011;43337;52.070;4.508;2023-04-03T01:48:11;3.08;;;1.17;;
49029;SDS011;43337;52.070;4.508;2023-04-03T01:50:37;5.18;;;1.23;;
49029;SDS011;43337;52.070;4.508;2023-04-03T01:53:02;4.55;;;1.30;;
49029;SDS011;43337;52.070;4.508;2023-04-03T01:55:28;5.93;;;1.20;;
49029;SDS011;43337;52.070;4.508;2023-04-03T01:57:53;3.38;;;1.27;;
49029;SDS011;43337;52.070;4.508;2023-04-03T02:00:19;4.03;;;1.65;;
49029;SDS011;43337;52.070;4.508;2023-04-03T02:02:44;3.47;;;1.35;;
49029;SDS011;43337;52.070;4.508;2023-04-03T02:05:10;3.90;;;1.42;;
49029;SDS011;43337;52.070;4.508;2023-04-03T02:07:35;6.68;;;1.48;;
49029;SDS011;43337;52.070;4.508;2023-04-03T02:10:01;6.05;;;1.30;;
49029;SDS011;43337;52.070;4.508;2023-04-03T02:12:26;5.18;;;1.67;;
49029;SDS011;43337;52.070;4.508;2023-04-03T02:14:51;6.38;;;1.30;;
49029;SDS011;43337;52.070;4.508;2023-04-03T02:17:17;5.60;;;1.40;;
49029;SDS011;43337;52.070;4.508;2023-04-03T02:19:42;3.17;;;1.17;;
49029;SDS011;43337;52.070;4.508;2023-04-03T02:22:08;5.80;;;2.08;;
49029;SDS011;43337;52.070;4.508;2023-04-03T02:24:33;4.03;;;1.63;;
49029;SDS011;43337;52.070;4.508;2023-04-03T02:26:59;3.33;;;1.20;;
49029;SDS011;43337;52.070;4.508;2023-04-03T02:29:24;3.72;;;1.30;;
49029;SDS011;43337;52.070;4.508;2023-04-03T02:31:50;3.67;;;1.48;;
49029;SDS011;43337;52.070;4.508;2023-04-03T02:34:17;4.90;;;1.65;;
49029;SDS011;43337;52.070;4.508;2023-04-03T02:36:42;4.25;;;1.40;;
49029;SDS011;43337;52.070;4.508;2023-04-03T02:39:08;3.22;;;1.35;;
49029;SDS011;43337;52.070;4.508;2023-04-03T02:41:34;4.25;;;1.80;;
49029;SDS011;43337;52.070;4.508;2023-04-03T02:44:02;2.85;;;1.40;;
49029;SDS011;43337;52.070;4.508;2023-04-03T02:46:29;6.85;;;2.20;;
49029;SDS011;43337;52.070;4.508;2023-04-03T02:48:55;3.55;;;1.48;;
49029;SDS011;43337;52.070;4.508;2023-04-03T02:51:21;3.22;;;1.38;;
49029;SDS011;43337;52.070;4.508;2023-04-03T02:53:47;3.80;;;1.70;;
49029;SDS011;43337;52.070;4.508;2023-04-03T02:56:15;4.88;;;1.80;;
49029;SDS011;43337;52.070;4.508;2023-04-03T02:58:43;4.43;;;1.50;;
49029;SDS011;43337;52.070;4.508;2023-04-03T03:01:09;5.57;;;2.10;;
49029;SDS011;43337;52.070;4.508;2023-04-03T03:03:34;4.60;;;1.65;;
49029;SDS011;43337;52.070;4.508;2023-04-03T03:06:00;7.82;;;1.45;;
49029;SDS011;43337;52.070;4.508;2023-04-03T03:08:30;4.85;;;1.77;;
49029;SDS011;43337;52.070;4.508;2023-04-03T03:10:55;5.18;;;1.58;;
49029;SDS011;43337;52.070;4.508;2023-04-03T03:13:21;2.90;;;1.40;;
49029;SDS011;43337;52.070;4.508;2023-04-03T03:15:46;5.60;;;2.13;;
49029;SDS011;43337;52.070;4.508;2023-04-03T03:18:11;7.72;;;1.77;;
49029;SDS011;43337;52.070;4.508;2023-04-03T03:20:37;4.97;;;1.83;;
49029;SDS011;43337;52.070;4.508;2023-04-03T03:23:02;4.10;;;1.35;;
49029;SDS011;43337;52.070;4.508;2023-04-03T03:25:28;4.50;;;1.38;;
49029;SDS011;43337;52.070;4.508;2023-04-03T03:27:53;4.90;;;1.42;;
49029;SDS011;43337;52.070;4.508;2023-04-03T03:30:19;5.80;;;1.80;;
49029;SDS011;43337;52.070;4.508;2023-04-03T03:32:44;3.67;;;1.17;;
49029;SDS011;43337;52.070;4.508;2023-04-03T03:35:09;4.43;;;1.63;;
49029;SDS011;43337;52.070;4.508;2023-04-03T03:37:35;4.80;;;2.13;;
49029;SDS011;43337;52.070;4.508;2023-04-03T03:40:00;3.53;;;1.40;;
49029;SDS011;43337;52.070;4.508;2023-04-03T03:42:25;5.57;;;1.75;;
49029;SDS011;43337;52.070;4.508;2023-04-03T03:44:51;3.83;;;1.30;;
49029;SDS011;43337;52.070;4.508;2023-04-03T03:47:17;5.07;;;1.63;;
49029;SDS011;43337;52.070;4.508;2023-04-03T03:49:42;5.55;;;1.80;;
49029;SDS011;43337;52.070;4.508;2023-04-03T03:52:07;5.97;;;1.98;;
49029;SDS011;43337;52.070;4.508;2023-04-03T03:54:35;3.60;;;1.30;;
49029;SDS011;43337;52.070;4.508;2023-04-03T03:57:02;7.38;;;1.85;;
49029;SDS011;43337;52.070;4.508;2023-04-03T03:59:27;5.63;;;1.95;;
49029;SDS011;43337;52.070;4.508;2023-04-03T04:01:54;5.75;;;1.50;;
49029;SDS011;43337;52.070;4.508;2023-04-03T04:04:20;7.30;;;2.05;;
49029;SDS011;43337;52.070;4.508;2023-04-03T04:06:45;5.60;;;1.63;;
49029;SDS011;43337;52.070;4.508;2023-04-03T04:09:11;4.03;;;1.60;;
49029;SDS011;43337;52.070;4.508;2023-04-03T04:11:37;3.47;;;1.70;;
49029;SDS011;43337;52.070;4.508;2023-04-03T04:14:04;6.05;;;1.73;;
49029;SDS011;43337;52.070;4.508;2023-04-03T04:16:30;7.13;;;2.05;;
49029;SDS011;43337;52.070;4.508;2023-04-03T04:18:55;4.55;;;2.15;;
49029;SDS011;43337;52.070;4.508;2023-04-03T04:21:21;5.63;;;2.28;;
49029;SDS011;43337;52.070;4.508;2023-04-03T04:23:46;4.75;;;1.90;;
49029;SDS011;43337;52.070;4.508;2023-04-03T04:26:11;8.27;;;1.98;;
49029;SDS011;43337;52.070;4.508;2023-04-03T04:28:37;7.38;;;2.00;;
49029;SDS011;43337;52.070;4.508;2023-04-03T04:31:02;5.40;;;1.92;;
49029;SDS011;43337;52.070;4.508;2023-04-03T04:33:27;7.45;;;2.38;;
49029;SDS011;43337;52.070;4.508;2023-04-03T04:35:53;6.60;;;1.70;;
49029;SDS011;43337;52.070;4.508;2023-04-03T04:38:18;4.32;;;1.90;;
49029;SDS011;43337;52.070;4.508;2023-04-03T04:40:43;6.00;;;1.90;;
49029;SDS011;43337;52.070;4.508;2023-04-03T04:43:09;5.13;;;2.33;;
49029;SDS011;43337;52.070;4.508;2023-04-03T04:45:35;5.63;;;2.05;;
49029;SDS011;43337;52.070;4.508;2023-04-03T04:48:01;4.72;;;1.88;;
49029;SDS011;43337;52.070;4.508;2023-04-03T04:50:26;6.72;;;1.63;;
49029;SDS011;43337;52.070;4.508;2023-04-03T04:52:51;6.35;;;1.92;;
49029;SDS011;43337;52.070;4.508;2023-04-03T04:55:18;4.18;;;1.67;;
49029;SDS011;43337;52.070;4.508;2023-04-03T04:57:45;8.10;;;2.78;;
49029;SDS011;43337;52.070;4.508;2023-04-03T05:00:10;4.38;;;1.85;;
49029;SDS011;43337;52.070;4.508;2023-04-03T05:02:36;8.00;;;2.17;;
49029;SDS011;43337;52.070;4.508;2023-04-03T05:05:02;5.38;;;2.17;;
49029;SDS011;43337;52.070;4.508;2023-04-03T05:07:28;5.93;;;2.08;;
49029;SDS011;43337;52.070;4.508;2023-04-03T05:09:53;10.32;;;2.17;;
49029;SDS011;43337;52.070;4.508;2023-04-03T05:12:18;3.45;;;1.70;;
49029;SDS011;43337;52.070;4.508;2023-04-03T05:14:44;5.80;;;1.92;;
49029;SDS011;43337;52.070;4.508;2023-04-03T05:17:09;4.63;;;2.15;;
49029;SDS011;43337;52.070;4.508;2023-04-03T05:19:34;6.13;;;2.28;;
49029;SDS011;43337;52.070;4.508;2023-04-03T05:22:00;7.53;;;2.45;;
49029;SDS011;43337;52.070;4.508;2023-04-03T05:24:25;6.43;;;2.20;;
49029;SDS011;43337;52.070;4.508;2023-04-03T05:26:51;7.35;;;2.42;;
49029;SDS011;43337;52.070;4.508;2023-04-03T05:29:16;8.23;;;2.50;;
49029;SDS011;43337;52.070;4.508;2023-04-03T05:31:41;7.07;;;2.75;;
49029;SDS011;43337;52.070;4.508;2023-04-03T05:34:07;5.32;;;2.53;;
49029;SDS011;43337;52.070;4.508;2023-04-03T05:36:32;7.07;;;2.88;;
49029;SDS011;43337;52.070;4.508;2023-04-03T05:38:58;5.32;;;2.50;;
49029;SDS011;43337;52.070;4.508;2023-04-03T05:41:23;8.07;;;2.13;;
49029;SDS011;43337;52.070;4.508;2023-04-03T05:43:48;6.35;;;1.98;;
49029;SDS011;43337;52.070;4.508;2023-04-03T05:46:15;11.18;;;2.72;;
49029;SDS011;43337;52.070;4.508;2023-04-03T05:48:42;7.80;;;2.33;;
49029;SDS011;43337;52.070;4.508;2023-04-03T05:51:13;5.65;;;1.95;;
49029;SDS011;43337;52.070;4.508;2023-04-03T05:53:41;6.00;;;2.33;;
49029;SDS011;43337;52.070;4.508;2023-04-03T05:56:06;8.68;;;2.50;;
49029;SDS011;43337;52.070;4.508;2023-04-03T05:58:32;6.72;;;2.05;;
49029;SDS011;43337;52.070;4.508;2023-04-03T06:00:57;5.05;;;1.63;;
49029;SDS011;43337;52.070;4.508;2023-04-03T06:03:22;8.18;;;2.15;;
49029;SDS011;43337;52.070;4.508;2023-04-03T06:05:48;7.60;;;2.35;;
49029;SDS011;43337;52.070;4.508;2023-04-03T06:08:13;6.90;;;2.35;;
49029;SDS011;43337;52.070;4.508;2023-04-03T06:10:39;4.50;;;2.15;;
49029;SDS011;43337;52.070;4.508;2023-04-03T06:13:04;6.57;;;2.67;;
49029;SDS011;43337;52.070;4.508;2023-04-03T06:15:30;4.47;;;2.00;;
49029;SDS011;43337;52.070;4.508;2023-04-03T06:17:56;5.30;;;1.80;;
49029;SDS011;43337;52.070;4.508;2023-04-03T06:20:21;3.75;;;1.65;;
49029;SDS011;43337;52.070;4.508;2023-04-03T06:22:47;4.00;;;1.90;;
49029;SDS011;43337;52.070;4.508;2023-04-03T06:25:13;6.35;;;2.13;;
49029;SDS011;43337;52.070;4.508;2023-04-03T06:27:42;6.20;;;2.40;;
49029;SDS011;43337;52.070;4.508;2023-04-03T06:30:07;7.28;;;2.70;;
49029;SDS011;43337;52.070;4.508;2023-04-03T06:32:33;7.70;;;2.03;;
49029;SDS011;43337;52.070;4.508;2023-04-03T06:34:58;5.68;;;2.38;;
49029;SDS011;43337;52.070;4.508;2023-04-03T06:37:25;6.63;;;1.80;;
49029;SDS011;43337;52.070;4.508;2023-04-03T06:39:54;4.38;;;2.00;;
49029;SDS011;43337;52.070;4.508;2023-04-03T06:42:20;4.47;;;2.00;;
49029;SDS011;43337;52.070;4.508;2023-04-03T06:44:46;6.18;;;1.52;;
49029;SDS011;43337;52.070;4.508;2023-04-03T06:47:15;6.93;;;2.17;;
49029;SDS011;43337;52.070;4.508;2023-04-03T06:49:41;19.38;;;4.07;;
49029;SDS011;43337;52.070;4.508;2023-04-03T06:52:07;8.25;;;2.00;;
49029;SDS011;43337;52.070;4.508;2023-04-03T06:54:33;4.05;;;1.80;;
49029;SDS011;43337;52.070;4.508;2023-04-03T06:56:59;6.80;;;2.40;;
49029;SDS011;43337;52.070;4.508;2023-04-03T06:59:24;6.47;;;2.00;;
49029;SDS011;43337;52.070;4.508;2023-04-03T07:01:50;5.72;;;2.50;;
49029;SDS011;43337;52.070;4.508;2023-04-03T07:04:16;6.93;;;1.92;;
49029;SDS011;43337;52.070;4.508;2023-04-03T07:06:42;8.65;;;2.67;;
49029;SDS011;43337;52.070;4.508;2023-04-03T07:09:08;8.93;;;2.28;;
49029;SDS011;43337;52.070;4.508;2023-04-03T07:11:34;6.70;;;2.40;;
49029;SDS011;43337;52.070;4.508;2023-04-03T07:14:01;4.45;;;1.98;;
49029;SDS011;43337;52.070;4.508;2023-04-03T07:16:27;7.22;;;2.00;;
49029;SDS011;43337;52.070;4.508;2023-04-03T07:18:52;3.75;;;1.80;;
49029;SDS011;43337;52.070;4.508;2023-04-03T07:21:18;5.10;;;1.80;;
49029;SDS011;43337;52.070;4.508;2023-04-03T07:23:43;6.32;;;2.00;;
49029;SDS011;43337;52.070;4.508;2023-04-03T07:26:08;9.70;;;1.90;;
49029;SDS011;43337;52.070;4.508;2023-04-03T07:28:34;7.25;;;1.90;;
49029;SDS011;43337;52.070;4.508;2023-04-03T07:31:05;6.75;;;1.92;;
49029;SDS011;43337;52.070;4.508;2023-04-03T07:33:33;7.88;;;2.08;;
49029;SDS011;43337;52.070;4.508;2023-04-03T07:35:59;4.97;;;2.00;;
49029;SDS011;43337;52.070;4.508;2023-04-03T07:38:26;4.55;;;1.77;;
49029;SDS011;43337;52.070;4.508;2023-04-03T07:40:52;6.75;;;1.77;;
49029;SDS011;43337;52.070;4.508;2023-04-03T07:43:18;4.95;;;1.83;;
49029;SDS011;43337;52.070;4.508;2023-04-03T07:45:45;9.23;;;2.25;;
49029;SDS011;43337;52.070;4.508;2023-04-03T07:48:12;6.45;;;1.50;;
49029;SDS011;43337;52.070;4.508;2023-04-03T07:50:45;4.05;;;1.90;;
49029;SDS011;43337;52.070;4.508;2023-04-03T07:53:11;6.93;;;2.33;;
49029;SDS011;43337;52.070;4.508;2023-04-03T07:55:36;7.00;;;1.77;;
49029;SDS011;43337;52.070;4.508;2023-04-03T07:58:08;5.35;;;1.80;;
49029;SDS011;43337;52.070;4.508;2023-04-03T08:00:43;6.80;;;2.08;;
49029;SDS011;43337;52.070;4.508;2023-04-03T08:03:10;8.63;;;2.03;;
49029;SDS011;43337;52.070;4.508;2023-04-03T08:05:37;7.45;;;2.63;;
49029;SDS011;43337;52.070;4.508;2023-04-03T08:08:03;4.95;;;1.52;;
49029;SDS011;43337;52.070;4.508;2023-04-03T08:10:30;5.93;;;2.03;;
49029;SDS011;43337;52.070;4.508;2023-04-03T08:12:56;6.55;;;1.92;;
49029;SDS011;43337;52.070;4.508;2023-04-03T08:15:21;5.38;;;1.55;;
49029;SDS011;43337;52.070;4.508;2023-04-03T08:17:47;6.07;;;1.83;;
49029;SDS011;43337;52.070;4.508;2023-04-03T08:20:12;7.45;;;1.85;;
49029;SDS011;43337;52.070;4.508;2023-04-03T08:22:38;9.40;;;1.95;;
49029;SDS011;43337;52.070;4.508;2023-04-03T08:25:03;3.85;;;1.85;;
49029;SDS011;43337;52.070;4.508;2023-04-03T08:27:29;5.07;;;1.50;;
49029;SDS011;43337;52.070;4.508;2023-04-03T08:29:54;6.60;;;1.40;;
49029;SDS011;43337;52.070;4.508;2023-04-03T08:32:21;5.35;;;1.88;;
49029;SDS011;43337;52.070;4.508;2023-04-03T08:34:47;6.05;;;1.75;;
49029;SDS011;43337;52.070;4.508;2023-04-03T08:37:12;9.73;;;2.42;;
49029;SDS011;43337;52.070;4.508;2023-04-03T08:39:38;7.50;;;1.95;;
49029;SDS011;43337;52.070;4.508;2023-04-03T08:42:05;5.15;;;1.83;;
49029;SDS011;43337;52.070;4.508;2023-04-03T08:44:59;9.38;;;1.77;;
49029;SDS011;43337;52.070;4.508;2023-04-03T08:52:50;6.40;;;1.75;;
49029;SDS011;43337;52.070;4.508;2023-04-03T08:55:40;6.05;;;1.48;;
49029;SDS011;43337;52.070;4.508;2023-04-03T08:58:52;5.25;;;1.48;;
49029;SDS011;43337;52.070;4.508;2023-04-03T09:01:06;5.03;;;2.53;;
49029;SDS011;43337;52.070;4.508;2023-04-03T09:03:41;4.07;;;1.35;;
49029;SDS011;43337;52.070;4.508;2023-04-03T09:06:07;4.80;;;1.40;;
49029;SDS011;43337;52.070;4.508;2023-04-03T09:11:06;3.85;;;1.50;;
49029;SDS011;43337;52.070;4.508;2023-04-03T09:19:30;7.90;;;1.60;;
49029;SDS011;43337;52.070;4.508;2023-04-03T09:22:43;4.30;;;1.17;;
49029;SDS011;43337;52.070;4.508;2023-04-03T09:27:47;4.63;;;0.98;;
49029;SDS011;43337;52.070;4.508;2023-04-03T09:30:20;5.50;;;1.20;;
49029;SDS011;43337;52.070;4.508;2023-04-03T09:32:49;3.03;;;1.00;;
49029;SDS011;43337;52.070;4.508;2023-04-03T09:40:45;1.98;;;0.70;;
49029;SDS011;43337;52.070;4.508;2023-04-03T09:43:38;2.67;;;0.82;;
49029;SDS011;43337;52.070;4.508;2023-04-03T09:48:52;3.00;;;0.70;;
49029;SDS011;43337;52.070;4.508;2023-04-03T09:51:24;2.85;;;0.68;;
49029;SDS011;43337;52.070;4.508;2023-04-03T09:53:51;1.38;;;0.50;;
49029;SDS011;43337;52.070;4.508;2023-04-03T10:06:48;3.10;;;0.50;;
49029;SDS011;43337;52.070;4.508;2023-04-03T10:09:21;1.73;;;0.50;;
49029;SDS011;43337;52.070;4.508;2023-04-03T10:14:38;3.30;;;0.93;;
49029;SDS011;43337;52.070;4.508;2023-04-03T10:20:27;2.15;;;0.60;;
49029;SDS011;43337;52.070;4.508;2023-04-03T10:25:40;1.67;;;0.50;;
49029;SDS011;43337;52.070;4.508;2023-04-03T10:31:13;1.40;;;0.50;;
49029;SDS011;43337;52.070;4.508;2023-04-03T10:33:55;4.60;;;0.60;;
49029;SDS011;43337;52.070;4.508;2023-04-03T10:42:34;1.75;;;0.50;;
49029;SDS011;43337;52.070;4.508;2023-04-03T10:56:12;5.78;;;0.70;;
49029;SDS011;43337;52.070;4.508;2023-04-03T10:58:39;2.22;;;0.57;;
49029;SDS011;43337;52.070;4.508;2023-04-03T11:01:13;4.13;;;0.65;;
49029;SDS011;43337;52.070;4.508;2023-04-03T11:03:54;2.53;;;0.60;;
49029;SDS011;43337;52.070;4.508;2023-04-03T11:06:23;1.90;;;0.70;;
49029;SDS011;43337;52.070;4.508;2023-04-03T11:08:54;3.53;;;1.00;;
49029;SDS011;43337;52.070;4.508;2023-04-03T11:11:29;2.28;;;0.50;;
49029;SDS011;43337;52.070;4.508;2023-04-03T11:14:00;1.45;;;0.57;;
49029;SDS011;43337;52.070;4.508;2023-04-03T11:16:30;3.47;;;0.60;;
49029;SDS011;43337;52.070;4.508;2023-04-03T11:19:01;2.35;;;0.60;;
49029;SDS011;43337;52.070;4.508;2023-04-03T11:24:29;1.20;;;0.57;;
49029;SDS011;43337;52.070;4.508;2023-04-03T11:26:58;1.40;;;0.50;;
49029;SDS011;43337;52.070;4.508;2023-04-03T11:29:33;2.00;;;0.50;;
49029;SDS011;43337;52.070;4.508;2023-04-03T11:34:52;1.95;;;0.55;;
49029;SDS011;43337;52.070;4.508;2023-04-03T11:42:48;1.98;;;0.50;;
49029;SDS011;43337;52.070;4.508;2023-04-03T11:47:50;1.23;;;0.30;;
49029;SDS011;43337;52.070;4.508;2023-04-03T11:53:03;1.50;;;0.43;;
49029;SDS011;43337;52.070;4.508;2023-04-03T12:13:35;1.38;;;0.40;;
49029;SDS011;43337;52.070;4.508;2023-04-03T12:16:46;1.27;;;0.50;;
49029;SDS011;43337;52.070;4.508;2023-04-03T12:19:27;0.88;;;0.30;;
49029;SDS011;43337;52.070;4.508;2023-04-03T12:24:26;2.40;;;0.50;;
49029;SDS011;43337;52.070;4.508;2023-04-03T12:42:18;2.35;;;0.65;;
49029;SDS011;43337;52.070;4.508;2023-04-03T12:45:19;0.98;;;0.40;;
49029;SDS011;43337;52.070;4.508;2023-04-03T12:47:48;3.13;;;0.50;;
49029;SDS011;43337;52.070;4.508;2023-04-03T12:50:20;1.27;;;0.32;;
49029;SDS011;43337;52.070;4.508;2023-04-03T12:53:13;4.25;;;0.60;;
49029;SDS011;43337;52.070;4.508;2023-04-03T12:55:53;2.25;;;0.50;;
49029;SDS011;43337;52.070;4.508;2023-04-03T12:58:26;2.00;;;0.50;;
49029;SDS011;43337;52.070;4.508;2023-04-03T13:03:45;2.38;;;0.68;;
49029;SDS011;43337;52.070;4.508;2023-04-03T13:06:16;2.88;;;0.60;;
49029;SDS011;43337;52.070;4.508;2023-04-03T13:08:48;1.50;;;0.55;;
49029;SDS011;43337;52.070;4.508;2023-04-03T13:11:14;1.83;;;0.57;;
49029;SDS011;43337;52.070;4.508;2023-04-03T13:13:45;1.50;;;0.45;;
49029;SDS011;43337;52.070;4.508;2023-04-03T13:16:30;2.70;;;0.60;;
49029;SDS011;43337;52.070;4.508;2023-04-03T13:18:57;3.60;;;0.70;;
49029;SDS011;43337;52.070;4.508;2023-04-03T13:21:24;3.03;;;0.80;;
49029;SDS011;43337;52.070;4.508;2023-04-03T13:23:54;1.67;;;0.50;;
49029;SDS011;43337;52.070;4.508;2023-04-03T13:26:26;1.35;;;0.43;;
49029;SDS011;43337;52.070;4.508;2023-04-03T13:28:55;2.65;;;0.63;;
49029;SDS011;43337;52.070;4.508;2023-04-03T13:31:25;4.28;;;0.75;;
49029;SDS011;43337;52.070;4.508;2023-04-03T13:34:06;2.60;;;0.70;;
49029;SDS011;43337;52.070;4.508;2023-04-03T13:39:30;2.00;;;0.70;;
49029;SDS011;43337;52.070;4.508;2023-04-03T13:41:57;1.95;;;0.68;;
49029;SDS011;43337;52.070;4.508;2023-04-03T13:44:47;1.83;;;0.73;;
49029;SDS011;43337;52.070;4.508;2023-04-03T13:47:20;2.13;;;0.70;;
49029;SDS011;43337;52.070;4.508;2023-04-03T13:50:02;2.47;;;0.65;;
49029;SDS011;43337;52.070;4.508;2023-04-03T13:52:46;1.38;;;0.57;;
49029;SDS011;43337;52.070;4.508;2023-04-03T13:55:17;2.97;;;0.70;;
49029;SDS011;43337;52.070;4.508;2023-04-03T14:00:30;3.03;;;0.68;;
49029;SDS011;43337;52.070;4.508;2023-04-03T14:03:39;3.10;;;1.17;;
49029;SDS011;43337;52.070;4.508;2023-04-03T14:06:12;4.22;;;0.90;;
49029;SDS011;43337;52.070;4.508;2023-04-03T14:08:40;3.17;;;0.75;;
49029;SDS011;43337;52.070;4.508;2023-04-03T14:11:08;4.00;;;1.10;;
49029;SDS011;43337;52.070;4.508;2023-04-03T14:13:37;1.80;;;0.60;;
49029;SDS011;43337;52.070;4.508;2023-04-03T14:16:03;2.35;;;1.10;;
49029;SDS011;43337;52.070;4.508;2023-04-03T14:18:28;2.58;;;0.80;;
49029;SDS011;43337;52.070;4.508;2023-04-03T14:20:53;1.90;;;0.90;;
49029;SDS011;43337;52.070;4.508;2023-04-03T14:23:19;2.45;;;0.90;;
49029;SDS011;43337;52.070;4.508;2023-04-03T14:25:45;1.48;;;0.70;;
49029;SDS011;43337;52.070;4.508;2023-04-03T14:28:17;4.03;;;1.10;;
49029;SDS011;43337;52.070;4.508;2023-04-03T14:30:46;10.95;;;1.15;;
49029;SDS011;43337;52.070;4.508;2023-04-03T14:33:13;2.22;;;0.68;;
49029;SDS011;43337;52.070;4.508;2023-04-03T14:35:41;2.60;;;0.90;;
49029;SDS011;43337;52.070;4.508;2023-04-03T14:38:21;2.13;;;0.68;;
49029;SDS011;43337;52.070;4.508;2023-04-03T14:40:51;3.85;;;0.80;;
49029;SDS011;43337;52.070;4.508;2023-04-03T14:43:17;3.53;;;1.02;;
49029;SDS011;43337;52.070;4.508;2023-04-03T14:45:43;3.38;;;0.80;;
49029;SDS011;43337;52.070;4.508;2023-04-03T14:48:10;1.73;;;0.70;;
49029;SDS011;43337;52.070;4.508;2023-04-03T14:50:42;2.20;;;0.85;;
49029;SDS011;43337;52.070;4.508;2023-04-03T14:53:10;1.95;;;0.80;;
49029;SDS011;43337;52.070;4.508;2023-04-03T14:55:37;2.47;;;0.70;;
49029;SDS011;43337;52.070;4.508;2023-04-03T14:58:03;1.90;;;0.77;;
49029;SDS011;43337;52.070;4.508;2023-04-03T15:00:28;2.25;;;0.70;;
49029;SDS011;43337;52.070;4.508;2023-04-03T15:02:53;2.17;;;0.68;;
49029;SDS011;43337;52.070;4.508;2023-04-03T15:05:19;2.45;;;0.80;;
49029;SDS011;43337;52.070;4.508;2023-04-03T15:07:46;8.07;;;1.10;;
49029;SDS011;43337;52.070;4.508;2023-04-03T15:10:20;2.53;;;0.90;;
49029;SDS011;43337;52.070;4.508;2023-04-03T15:12:48;3.15;;;0.75;;
49029;SDS011;43337;52.070;4.508;2023-04-03T15:15:15;3.10;;;0.88;;
49029;SDS011;43337;52.070;4.508;2023-04-03T15:17:42;3.38;;;1.00;;
49029;SDS011;43337;52.070;4.508;2023-04-03T15:20:18;2.78;;;0.75;;
49029;SDS011;43337;52.070;4.508;2023-04-03T15:22:44;3.85;;;0.95;;
49029;SDS011;43337;52.070;4.508;2023-04-03T15:25:10;2.75;;;0.70;;
49029;SDS011;43337;52.070;4.508;2023-04-03T15:27:36;3.03;;;0.80;;
49029;SDS011;43337;52.070;4.508;2023-04-03T15:30:03;3.38;;;0.90;;
49029;SDS011;43337;52.070;4.508;2023-04-03T15:32:32;2.50;;;0.85;;
49029;SDS011;43337;52.070;4.508;2023-04-03T15:34:58;3.85;;;1.05;;
49029;SDS011;43337;52.070;4.508;2023-04-03T15:37:24;2.75;;;0.82;;
49029;SDS011;43337;52.070;4.508;2023-04-03T15:39:50;3.65;;;1.50;;
49029;SDS011;43337;52.070;4.508;2023-04-03T15:42:15;5.75;;;1.70;;
49029;SDS011;43337;52.070;4.508;2023-04-03T15:44:40;2.10;;;0.93;;
49029;SDS011;43337;52.070;4.508;2023-04-03T15:47:06;2.85;;;0.82;;
49029;SDS011;43337;52.070;4.508;2023-04-03T15:49:34;3.22;;;0.93;;
49029;SDS011;43337;52.070;4.508;2023-04-03T15:52:00;2.33;;;0.90;;
49029;SDS011;43337;52.070;4.508;2023-04-03T15:54:26;5.60;;;1.20;;
49029;SDS011;43337;52.070;4.508;2023-04-03T15:56:54;2.40;;;1.00;;
49029;SDS011;43337;52.070;4.508;2023-04-03T15:59:20;3.72;;;0.80;;
49029;SDS011;43337;52.070;4.508;2023-04-03T16:01:45;3.28;;;0.98;;
49029;SDS011;43337;52.070;4.508;2023-04-03T16:04:11;3.50;;;1.15;;
49029;SDS011;43337;52.070;4.508;2023-04-03T16:06:36;3.83;;;0.90;;
49029;SDS011;43337;52.070;4.508;2023-04-03T16:09:03;1.90;;;0.70;;
49029;SDS011;43337;52.070;4.508;2023-04-03T16:11:29;3.17;;;1.00;;
49029;SDS011;43337;52.070;4.508;2023-04-03T16:13:55;2.30;;;0.90;;
49029;SDS011;43337;52.070;4.508;2023-04-03T16:16:21;4.00;;;0.93;;
49029;SDS011;43337;52.070;4.508;2023-04-03T16:18:48;5.43;;;1.73;;
49029;SDS011;43337;52.070;4.508;2023-04-03T16:21:14;9.48;;;3.65;;
49029;SDS011;43337;52.070;4.508;2023-04-03T16:23:41;4.15;;;1.05;;
49029;SDS011;43337;52.070;4.508;2023-04-03T16:26:06;5.20;;;1.30;;
49029;SDS011;43337;52.070;4.508;2023-04-03T16:28:32;4.95;;;1.00;;
49029;SDS011;43337;52.070;4.508;2023-04-03T16:30:57;5.45;;;1.20;;
49029;SDS011;43337;52.070;4.508;2023-04-03T16:33:25;3.92;;;1.27;;
49029;SDS011;43337;52.070;4.508;2023-04-03T16:35:50;2.72;;;0.90;;
49029;SDS011;43337;52.070;4.508;2023-04-03T16:38:17;5.53;;;1.05;;
49029;SDS011;43337;52.070;4.508;2023-04-03T16:40:43;5.95;;;0.93;;
49029;SDS011;43337;52.070;4.508;2023-04-03T16:43:09;3.40;;;0.88;;
49029;SDS011;43337;52.070;4.508;2023-04-03T16:45:35;3.85;;;1.38;;
49029;SDS011;43337;52.070;4.508;2023-04-03T16:48:00;4.30;;;1.80;;
49029;SDS011;43337;52.070;4.508;2023-04-03T16:50:26;6.60;;;1.38;;
49029;SDS011;43337;52.070;4.508;2023-04-03T16:52:52;5.60;;;1.20;;
49029;SDS011;43337;52.070;4.508;2023-04-03T16:55:17;4.40;;;0.90;;
49029;SDS011;43337;52.070;4.508;2023-04-03T16:57:43;3.40;;;0.95;;
49029;SDS011;43337;52.070;4.508;2023-04-03T17:00:08;3.78;;;0.70;;
49029;SDS011;43337;52.070;4.508;2023-04-03T17:02:34;4.32;;;0.80;;
49029;SDS011;43337;52.070;4.508;2023-04-03T17:05:00;3.45;;;0.90;;